Kitty Hawk, North Carolina
Current Conditions -  °F | °C
As of 11:15 AM on Friday 24 Oct 2014 (Local Time) from KFFA Reporting Station
Clear Clear  
Wind Chill: 59°   Ceiling: Unl
Heat Index: 59°   Visibility: 10mi
Dew Point: 47°   Wind: 7mph
Humidity: 63%   Direction: 310°NW
Pressure: 29.96"   Gusts: NA
Location:  36.06°N, 75.71°W
Report Text: KFFA 241515Z AUTO 31006KT 10SM CLR 15/08 A2996 RMK AO2 T01510082
Loading
Personal Weather Stations






























Interactive Weather Map
Tropical Storm Tracking
New forecast layout! Learn more

10-Day Weather Forecast

Advertisements
Track Severe Weather on mobile